createdAt,value
2023-02-11T00:02:29.636Z,100236.69
2023-02-11T00:05:33.821Z,100242.75
2023-02-11T00:08:36.537Z,100249.13
2023-02-11T00:11:41.463Z,100236.19
2023-02-11T00:14:51.657Z,100239.88
2023-02-11T00:17:57.321Z,100241.56
2023-02-11T00:21:14.535Z,100238.09
2023-02-11T00:35:14.015Z,100221.78
2023-02-11T00:42:05.112Z,100222.16
2023-02-11T00:45:11.094Z,100224.78
2023-02-11T00:51:46.542Z,100229.47
2023-02-11T00:54:56.326Z,100235.91
2023-02-11T00:58:01.352Z,100228.94
2023-02-11T01:01:09.435Z,100222.22
2023-02-11T01:04:16.179Z,100220.03
2023-02-11T01:07:24.309Z,100214.56
2023-02-11T01:10:40.822Z,100199.72
2023-02-11T01:13:46.090Z,100196.28
2023-02-11T01:16:51.034Z,100202.84
2023-02-11T01:19:59.296Z,100196.66
2023-02-11T01:26:34.709Z,100186.81
2023-02-11T01:45:38.687Z,100183.84
2023-02-11T01:53:29.602Z,100170.88
2023-02-11T01:57:17.735Z,100184.00
2023-02-11T02:08:45.545Z,100165.38
2023-02-11T02:11:48.493Z,100169.31
2023-02-11T02:14:51.301Z,100161.28
2023-02-11T02:18:11.093Z,100167.34
2023-02-11T02:22:04.366Z,100161.31
2023-02-11T02:25:26.125Z,100165.06
2023-02-11T02:28:56.410Z,100145.25
2023-02-11T02:32:18.545Z,100154.09
2023-02-11T02:35:30.625Z,100146.38
2023-02-11T02:38:38.774Z,100146.09
2023-02-11T02:41:43.272Z,100143.28
2023-02-11T02:44:50.222Z,100134.94
2023-02-11T02:47:54.393Z,100126.88
2023-02-11T02:51:05.655Z,100125.94
2023-02-11T02:54:37.664Z,100109.16
2023-02-11T02:57:55.736Z,100110.75
2023-02-11T03:01:05.613Z,100124.13
2023-02-11T03:04:18.489Z,100112.72
2023-02-11T03:07:28.749Z,100117.00
2023-02-11T03:10:34.150Z,100108.59
2023-02-11T03:13:39.077Z,100111.22
2023-02-11T03:16:42.496Z,100098.25
2023-02-11T03:19:49.187Z,100109.50
2023-02-11T03:22:56.781Z,100087.59
2023-02-11T03:26:06.219Z,100091.84
2023-02-11T03:29:17.841Z,100094.94
2023-02-11T03:32:26.288Z,100080.59
2023-02-11T03:35:36.986Z,100092.47
2023-02-11T03:38:46.383Z,100097.44
2023-02-11T03:41:50.905Z,100095.00
2023-02-11T03:44:58.326Z,100098.00
2023-02-11T03:48:03.714Z,100091.00
2023-02-11T03:51:10.517Z,100092.69
2023-02-11T03:54:19.316Z,100092.19
2023-02-11T03:57:22.134Z,100090.78
2023-02-11T04:00:31.292Z,100091.06
2023-02-11T04:03:34.086Z,100099.69
2023-02-11T04:06:38.276Z,100104.13
2023-02-11T04:09:40.957Z,100105.97
2023-02-11T04:12:43.942Z,100111.13
2023-02-11T04:15:48.820Z,100122.22
2023-02-11T04:18:51.764Z,100113.34
2023-02-11T04:21:56.131Z,100119.50
2023-02-11T04:24:58.819Z,100116.06
2023-02-11T04:28:01.631Z,100115.50
2023-02-11T04:31:04.536Z,100111.06
2023-02-11T04:34:07.309Z,100114.41
2023-02-11T04:37:11.267Z,100111.44
2023-02-11T04:40:14.114Z,100112.63
2023-02-11T04:43:17.360Z,100113.28
2023-02-11T04:46:20.061Z,100105.38
2023-02-11T04:49:22.842Z,100093.69
2023-02-11T04:52:27.350Z,100098.34
2023-02-11T04:55:30.055Z,100102.16
2023-02-11T04:58:32.691Z,100103.03
2023-02-11T05:01:35.861Z,100101.94
2023-02-11T05:04:38.706Z,100103.59
2023-02-11T05:07:42.725Z,100101.63
2023-02-11T05:10:47.401Z,100091.41
2023-02-11T05:13:50.257Z,100074.47
2023-02-11T05:16:53.009Z,100067.03
2023-02-11T05:19:55.644Z,100052.34
2023-02-11T05:22:59.677Z,100051.50
2023-02-11T05:26:02.681Z,100040.59
2023-02-11T05:29:05.326Z,100040.28
2023-02-11T05:32:09.014Z,100036.63
2023-02-11T05:35:11.647Z,100035.31
2023-02-11T05:38:15.723Z,100030.56
2023-02-11T05:41:18.432Z,100033.31
2023-02-11T05:44:21.078Z,100039.31
2023-02-11T05:47:23.955Z,100039.63
2023-02-11T05:50:27.422Z,100044.59
2023-02-11T05:53:31.411Z,100038.63
2023-02-11T05:56:34.156Z,100040.09
2023-02-11T05:59:36.812Z,100041.78
2023-02-11T06:02:39.584Z,100044.91
2023-02-11T06:05:43.747Z,100053.97
2023-02-11T06:08:47.793Z,100062.06
2023-02-11T06:11:50.519Z,100069.34
2023-02-11T06:14:53.229Z,100069.81
2023-02-11T06:17:55.916Z,100074.44
2023-02-11T06:21:01.003Z,100068.97
2023-02-11T06:24:05.633Z,100074.19
2023-02-11T06:27:08.359Z,100062.97
2023-02-11T06:30:12.353Z,100064.16
2023-02-11T06:33:15.057Z,100062.84
2023-02-11T06:36:21.417Z,100052.56
2023-02-11T06:39:25.832Z,100061.50
2023-02-11T06:42:28.548Z,100064.28
2023-02-11T06:45:31.247Z,100063.13
2023-02-11T06:48:34.713Z,100072.88
2023-02-11T06:51:37.752Z,100065.25
2023-02-11T06:54:42.001Z,100066.25
2023-02-11T06:57:44.665Z,100078.22
2023-02-11T07:00:47.307Z,100084.50
2023-02-11T07:03:50.306Z,100081.19
2023-02-11T07:06:52.990Z,100077.19
2023-02-11T07:09:57.025Z,100075.50
2023-02-11T07:12:59.702Z,100072.53
2023-02-11T07:16:05.938Z,100073.69
2023-02-11T07:19:08.648Z,100073.50
2023-02-11T07:22:11.292Z,100076.78
2023-02-11T07:25:15.446Z,100070.31
2023-02-11T07:28:18.185Z,100064.69
2023-02-11T07:31:22.680Z,100081.88
2023-02-11T07:34:25.468Z,100094.63
2023-02-11T07:37:28.491Z,100084.69
2023-02-11T07:40:32.837Z,100092.25
2023-02-11T07:43:36.707Z,100099.81
2023-02-11T07:46:43.016Z,100094.66
2023-02-11T07:49:46.436Z,100078.56
2023-02-11T07:52:49.273Z,100073.22
2023-02-11T07:55:53.441Z,100075.16
2023-02-11T07:58:58.036Z,100069.09
2023-02-11T08:02:00.985Z,100066.53
2023-02-11T08:05:03.677Z,100057.22
2023-02-11T08:08:06.420Z,100050.88
2023-02-11T08:11:12.718Z,100045.78
2023-02-11T08:14:15.411Z,100049.03
2023-02-11T08:17:18.235Z,100054.38
2023-02-11T08:20:21.322Z,100056.69
2023-02-11T08:23:24.408Z,100064.31
2023-02-11T08:26:31.696Z,100066.22
2023-02-11T08:29:34.531Z,100074.63
2023-02-11T08:32:37.438Z,100062.50
2023-02-11T08:35:40.567Z,100072.66
2023-02-11T08:38:44.011Z,100069.53
2023-02-11T08:41:49.447Z,100066.47
2023-02-11T08:44:52.132Z,100062.69
2023-02-11T08:47:54.946Z,100056.03
2023-02-11T08:50:58.444Z,100057.69
2023-02-11T08:54:01.949Z,100051.38
2023-02-11T08:57:06.362Z,100044.13
2023-02-11T09:00:11.153Z,100048.78
2023-02-11T09:03:14.191Z,100057.00
2023-02-11T09:06:18.587Z,100065.16
2023-02-11T09:09:21.391Z,100061.56
2023-02-11T09:12:25.513Z,100060.06
2023-02-11T09:15:28.297Z,100054.59
2023-02-11T09:18:31.147Z,100059.06
2023-02-11T09:21:34.024Z,100054.50
2023-02-11T09:24:37.258Z,100044.81
2023-02-11T09:27:41.302Z,100045.66
2023-02-11T09:30:44.008Z,100050.22
2023-02-11T09:33:49.838Z,100041.38
2023-02-11T09:36:52.541Z,100035.47
2023-02-11T09:39:55.171Z,100024.78
2023-02-11T09:43:04.573Z,100039.00
2023-02-11T09:46:07.530Z,100042.72
2023-02-11T09:49:22.478Z,100030.84
2023-02-11T09:52:34.581Z,100025.72
2023-02-11T09:55:42.684Z,100027.25
2023-02-11T09:58:47.153Z,100033.19
2023-02-11T10:01:54.636Z,100030.53
2023-02-11T10:05:18.499Z,100041.66
2023-02-11T10:08:31.700Z,100042.81
2023-02-11T10:11:43.090Z,100051.56
2023-02-11T10:15:05.277Z,100043.09
2023-02-11T10:18:38.250Z,100037.34
2023-02-11T10:21:52.832Z,100041.41
2023-02-11T10:24:58.322Z,100042.44
2023-02-11T10:28:11.347Z,100034.09
2023-02-11T10:31:19.501Z,100038.72
2023-02-11T10:34:22.491Z,100039.75
2023-02-11T10:37:25.144Z,100038.34
2023-02-11T10:40:29.772Z,100035.97
2023-02-11T10:43:33.777Z,100039.59
2023-02-11T10:46:40.206Z,100025.44
2023-02-11T10:49:44.501Z,100030.13
2023-02-11T10:52:47.206Z,100027.94
2023-02-11T10:55:55.345Z,100019.94
2023-02-11T10:59:02.754Z,100003.94
2023-02-11T11:02:22.095Z,100006.16
2023-02-11T11:05:31.407Z,100000.34
2023-02-11T11:08:43.696Z,99986.06
2023-02-11T11:11:53.950Z,99981.94
2023-02-11T11:14:57.843Z,99979.31
2023-02-11T11:18:23.068Z,99978.66
2023-02-11T11:21:29.807Z,99980.63
2023-02-11T11:24:35.256Z,99982.69
2023-02-11T11:27:37.971Z,99982.50
2023-02-11T11:30:43.767Z,99988.34
2023-02-11T11:33:49.379Z,99980.78
2023-02-11T11:36:52.773Z,99982.00
2023-02-11T11:39:59.068Z,99977.78
2023-02-11T11:43:23.033Z,99973.66
2023-02-11T11:46:31.721Z,99970.41
2023-02-11T11:49:40.465Z,99968.16
2023-02-11T11:52:48.997Z,99967.75
2023-02-11T11:56:00.769Z,99970.38
2023-02-11T11:59:08.132Z,99984.69
2023-02-11T12:02:36.480Z,99984.78
2023-02-11T12:05:47.986Z,99983.47
2023-02-11T12:08:59.517Z,99982.16
2023-02-11T12:12:24.174Z,99970.31
2023-02-11T12:15:35.539Z,99972.75
2023-02-11T12:18:54.620Z,99973.38
2023-02-11T12:22:06.649Z,99974.72
2023-02-11T12:25:27.122Z,99969.78
2023-02-11T12:28:39.626Z,99973.38
2023-02-11T12:31:57.520Z,99977.03
2023-02-11T12:35:29.049Z,99974.63
2023-02-11T12:38:53.932Z,99974.34
2023-02-11T12:42:33.564Z,99981.88
2023-02-11T12:46:10.800Z,99982.06
2023-02-11T12:49:38.112Z,99982.06
2023-02-11T12:52:59.419Z,99979.09
2023-02-11T12:56:09.888Z,99968.34
2023-02-11T12:59:19.347Z,99969.25
2023-02-11T13:02:31.641Z,99958.16
2023-02-11T13:05:41.944Z,99956.19
2023-02-11T13:08:48.823Z,99956.13
2023-02-11T13:11:58.312Z,99937.63
2023-02-11T13:15:06.279Z,99941.94
2023-02-11T13:18:20.459Z,99944.56
2023-02-11T13:21:35.691Z,99933.25
2023-02-11T13:24:45.267Z,99930.66
2023-02-11T13:27:58.978Z,99930.59
2023-02-11T13:31:03.582Z,99931.66
2023-02-11T13:34:24.778Z,99932.53
2023-02-11T13:37:33.880Z,99926.81
2023-02-11T13:40:39.456Z,99930.97
2023-02-11T13:43:44.640Z,99933.72
2023-02-11T13:47:08.657Z,99936.13
2023-02-11T13:50:24.885Z,99938.75
2023-02-11T13:53:28.876Z,99932.28
2023-02-11T13:56:33.726Z,99934.28
2023-02-11T13:59:49.319Z,99928.69
2023-02-11T14:03:39.071Z,99933.31
2023-02-11T14:07:43.147Z,99933.09
2023-02-11T14:10:53.971Z,99933.63
2023-02-11T14:14:15.912Z,99924.38
2023-02-11T14:17:28.415Z,99928.97
2023-02-11T14:20:43.267Z,99916.53
2023-02-11T14:23:46.838Z,99921.59
2023-02-11T14:26:55.034Z,99917.38
2023-02-11T14:30:21.116Z,99915.25
2023-02-11T14:33:52.096Z,99929.66
2023-02-11T14:37:08.114Z,99929.28
2023-02-11T14:40:20.120Z,99929.97
2023-02-11T14:43:29.106Z,99922.59
2023-02-11T14:46:34.050Z,99940.81
2023-02-11T14:49:41.458Z,99943.78
2023-02-11T14:52:45.287Z,99946.06
2023-02-11T14:55:50.409Z,99945.41
2023-02-11T14:58:54.939Z,99960.72
2023-02-11T15:01:58.618Z,99960.84
2023-02-11T15:05:26.044Z,99952.47
2023-02-11T15:08:30.671Z,99965.97
2023-02-11T15:11:39.742Z,99958.63
2023-02-11T15:14:48.860Z,99960.78
2023-02-11T15:17:51.980Z,99966.19
2023-02-11T15:20:56.216Z,99977.09
2023-02-11T15:24:01.610Z,99969.91
2023-02-11T15:27:12.835Z,99967.09
2023-02-11T15:30:29.853Z,99972.72
2023-02-11T15:33:33.936Z,99976.66
2023-02-11T15:36:39.303Z,99972.34
2023-02-11T15:39:43.247Z,99985.81
2023-02-11T15:42:57.411Z,99995.34
2023-02-11T15:46:02.834Z,99986.53
2023-02-11T15:49:08.018Z,99994.31
2023-02-11T15:52:17.411Z,99989.91
2023-02-11T15:55:21.601Z,99998.00
2023-02-11T15:58:25.166Z,99992.47
2023-02-11T16:01:34.021Z,99994.16
2023-02-11T16:04:37.768Z,99998.38
2023-02-11T16:07:49.643Z,99996.38
2023-02-11T16:10:58.631Z,100005.28
2023-02-11T16:14:05.806Z,100008.00
2023-02-11T16:17:13.063Z,100016.03
2023-02-11T16:20:20.098Z,100013.38
2023-02-11T16:23:26.638Z,100019.13
2023-02-11T16:26:33.472Z,100020.94
2023-02-11T16:29:38.153Z,100035.75
2023-02-11T16:32:40.880Z,100035.50
2023-02-11T16:35:47.472Z,100032.63
2023-02-11T16:38:51.512Z,100030.97
2023-02-11T16:41:54.344Z,100029.16
2023-02-11T16:44:56.976Z,100035.34
2023-02-11T16:48:00.101Z,100033.75
2023-02-11T16:51:03.422Z,100047.63
2023-02-11T16:54:08.016Z,100034.47
2023-02-11T16:57:15.334Z,100036.53
2023-02-11T17:00:19.095Z,100041.06
2023-02-11T17:03:24.419Z,100044.19
2023-02-11T17:06:28.823Z,100054.19
2023-02-11T17:09:32.841Z,100049.38
2023-02-11T17:12:35.535Z,100052.75
2023-02-11T17:15:38.644Z,100052.63
2023-02-11T17:18:41.305Z,100052.81
2023-02-11T17:21:44.539Z,100057.53
2023-02-11T17:24:48.622Z,100050.91
2023-02-11T17:27:52.882Z,100053.75
2023-02-11T17:30:55.765Z,100044.00
2023-02-11T17:33:58.441Z,100047.38
2023-02-11T17:37:03.121Z,100045.69
2023-02-11T17:40:09.167Z,100050.88
2023-02-11T17:43:11.855Z,100054.09
2023-02-11T17:46:14.977Z,100049.59
2023-02-11T17:49:17.757Z,100053.81
2023-02-11T17:52:21.523Z,100059.38
2023-02-11T17:55:25.583Z,100057.97
2023-02-11T17:58:28.240Z,100067.63
2023-02-11T18:01:32.702Z,100065.16
2023-02-11T18:04:36.101Z,100069.06
2023-02-11T18:07:38.783Z,100073.06
2023-02-11T18:10:43.509Z,100072.47
2023-02-11T18:13:51.381Z,100079.69
2023-02-11T18:16:54.838Z,100074.50
2023-02-11T18:19:58.348Z,100083.78
2023-02-11T18:23:01.040Z,100088.88
2023-02-11T18:26:08.039Z,100086.00
2023-02-11T18:29:11.011Z,100090.94
2023-02-11T18:32:14.395Z,100084.75
2023-02-11T18:35:17.272Z,100087.06
2023-02-11T18:38:20.185Z,100084.19
2023-02-11T18:41:24.604Z,100092.41
2023-02-11T18:44:28.053Z,100096.31
2023-02-11T18:47:32.370Z,100091.38
2023-02-11T18:50:35.037Z,100090.78
2023-02-11T18:53:37.774Z,100092.00
2023-02-11T18:56:41.935Z,100092.41
2023-02-11T18:59:44.697Z,100098.97
2023-02-11T19:02:47.340Z,100088.69
2023-02-11T19:05:51.169Z,100093.63
2023-02-11T19:08:55.506Z,100094.25
2023-02-11T19:12:01.921Z,100090.13
2023-02-11T19:15:05.082Z,100095.09
2023-02-11T19:18:07.795Z,100105.34
2023-02-11T19:21:11.917Z,100098.38
2023-02-11T19:24:18.819Z,100086.63
2023-02-11T19:27:22.847Z,100091.41
2023-02-11T19:30:25.554Z,100092.00
2023-02-11T19:33:28.421Z,100096.13
2023-02-11T19:36:31.172Z,100097.97
2023-02-11T19:39:35.534Z,100099.19
2023-02-11T19:42:40.004Z,100101.47
2023-02-11T19:45:42.653Z,100100.03
2023-02-11T19:48:45.354Z,100099.84
2023-02-11T19:51:47.973Z,100087.91
2023-02-11T19:54:50.623Z,100090.38
2023-02-11T19:57:54.600Z,100087.91
2023-02-11T20:01:06.299Z,100087.09
2023-02-11T20:04:13.148Z,100093.66
2023-02-11T20:07:15.876Z,100103.09
2023-02-11T20:10:18.816Z,100103.09
2023-02-11T20:13:22.830Z,100109.28
2023-02-11T20:16:44.675Z,100101.28
2023-02-11T20:19:49.486Z,100094.50
2023-02-11T20:22:55.328Z,100101.06
2023-02-11T20:25:58.029Z,100093.47
2023-02-11T20:29:03.356Z,100090.59
2023-02-11T20:32:06.655Z,100090.00
2023-02-11T20:35:10.803Z,100099.63
2023-02-11T20:38:13.673Z,100092.44
2023-02-11T20:41:18.723Z,100087.53
2023-02-11T20:44:23.314Z,100091.63
2023-02-11T20:47:26.017Z,100104.16
2023-02-11T20:50:29.637Z,100097.56
2023-02-11T20:53:34.826Z,100106.81
2023-02-11T20:56:39.471Z,100110.09
2023-02-11T20:59:43.736Z,100108.88
2023-02-11T21:02:46.797Z,100113.16
2023-02-11T21:05:49.657Z,100116.88
2023-02-11T21:08:52.510Z,100117.06
2023-02-11T21:11:55.824Z,100120.75
2023-02-11T21:14:59.883Z,100115.22
2023-02-11T21:18:02.556Z,100110.31
2023-02-11T21:21:06.989Z,100114.41
2023-02-11T21:24:10.723Z,100117.88
2023-02-11T21:27:13.489Z,100114.81
2023-02-11T21:30:52.843Z,100121.16
2023-02-11T21:34:12.620Z,100125.47
2023-02-11T21:37:17.539Z,100126.28
2023-02-11T21:40:23.226Z,100126.72
2023-02-11T21:43:25.904Z,100134.91
2023-02-11T21:46:30.865Z,100138.19
2023-02-11T21:49:33.803Z,100132.66
2023-02-11T21:52:36.568Z,100138.81
2023-02-11T21:55:40.533Z,100135.31
2023-02-11T21:58:43.620Z,100140.66
2023-02-11T22:01:47.637Z,100145.56
2023-02-11T22:04:56.108Z,100144.31
2023-02-11T22:07:58.897Z,100142.06
2023-02-11T22:11:03.991Z,100133.06
2023-02-11T22:14:07.116Z,100140.25
2023-02-11T22:17:11.560Z,100144.56
2023-02-11T22:20:16.100Z,100147.81
2023-02-11T22:23:18.829Z,100144.97
2023-02-11T22:26:26.815Z,100149.25
2023-02-11T22:29:34.270Z,100149.88
2023-02-11T22:32:42.525Z,100160.16
2023-02-11T22:35:45.183Z,100153.38
2023-02-11T22:38:48.113Z,100156.84
2023-02-11T22:41:50.843Z,100156.66
2023-02-11T22:44:53.899Z,100159.09
2023-02-11T22:48:00.118Z,100156.25
2023-02-11T22:51:13.074Z,100154.38
2023-02-11T22:54:19.308Z,100134.47
2023-02-11T22:57:22.325Z,100139.59
2023-02-11T23:00:27.251Z,100153.38
2023-02-11T23:03:31.751Z,100157.47
2023-02-11T23:06:35.287Z,100153.34
2023-02-11T23:09:38.266Z,100156.63
2023-02-11T23:12:40.967Z,100148.81
2023-02-11T23:15:45.473Z,100145.34
2023-02-11T23:18:50.418Z,100144.09
2023-02-11T23:21:53.665Z,100149.25
2023-02-11T23:24:56.756Z,100143.13
2023-02-11T23:27:59.600Z,100140.44
2023-02-11T23:31:02.616Z,100139.78
2023-02-11T23:34:07.102Z,100136.50
2023-02-11T23:37:09.759Z,100147.38
2023-02-11T23:40:13.807Z,100154.75
2023-02-11T23:43:16.792Z,100152.31
2023-02-11T23:46:21.783Z,100160.31
2023-02-11T23:49:26.531Z,100164.63
2023-02-11T23:53:07.355Z,100152.72
